Time;durP1;ratioP1;P1;durP2;ratioP2;P2;SDS_P1;SDS_P2;PMS_P1;PMS_P2;Temp;Humidity;BMP_temperature;BMP_pressure;BME280_temperature;BME280_humidity;BME280_pressure;Samples;Min_cycle;Max_cycle;Signal;HPM_P1;HPM_P2
2023/12/20 00:02:21;;;;;;;1.38;1.27;;;;;;;-145.63;62.50;39393.88;5054428;28;20029;-62
2023/12/20 00:04:47;;;;;;;2.15;1.40;;;;;;;-145.63;62.30;39384.09;5049151;28;20020;-63
2023/12/20 00:07:13;;;;;;;2.17;1.83;;;;;;;-145.63;62.52;39391.91;5066061;28;20024;-63
2023/12/20 00:09:38;;;;;;;2.50;1.60;;;;;;;-145.63;62.50;39376.28;5066093;28;20025;-63
2023/12/20 00:12:04;;;;;;;2.97;1.50;;;;;;;-145.63;62.60;39419.31;5064359;28;20309;-63
2023/12/20 00:14:30;;;;;;;2.75;1.67;;;;;;;-145.63;62.98;39380.19;5066235;28;20031;-63
2023/12/20 00:16:55;;;;;;;2.47;1.90;;;;;;;-145.63;62.75;39376.28;5061957;28;20025;-63
2023/12/20 00:19:21;;;;;;;2.80;1.60;;;;;;;-145.63;62.84;39386.06;5046099;28;20021;-64
2023/12/20 00:21:47;;;;;;;2.38;1.60;;;;;;;-145.63;62.83;39378.22;5065178;28;20257;-64
2023/12/20 00:24:12;;;;;;;1.70;1.60;;;;;;;-145.63;62.81;39395.84;5061820;28;20033;-64
2023/12/20 00:26:38;;;;;;;1.75;1.60;;;;;;;-145.63;62.30;39391.91;5065908;28;20056;-64
2023/12/20 00:29:04;;;;;;;2.63;1.80;;;;;;;-145.63;62.37;39395.84;5060699;28;20033;-63
2023/12/20 00:31:29;;;;;;;1.60;1.50;;;;;;;-145.63;62.62;39417.34;5053645;28;20029;-62
2023/12/20 00:33:56;;;;;;;1.50;1.40;;;;;;;-145.63;61.92;39419.31;5065570;28;20052;-62
2023/12/20 00:36:21;;;;;;;1.80;1.70;;;;;;;-145.63;61.60;39407.56;5052486;28;20068;-62
2023/12/20 00:38:48;;;;;;;2.20;2.00;;;;;;;-145.63;61.70;39409.53;5054687;28;20029;-62
2023/12/20 00:41:13;;;;;;;1.83;1.73;;;;;;;-145.63;61.46;39378.22;5051898;28;20029;-62
2023/12/20 00:43:39;;;;;;;2.67;1.85;;;;;;;-145.63;61.30;39376.28;5064373;28;20099;-62
2023/12/20 00:46:04;;;;;;;2.30;1.85;;;;;;;-145.63;60.87;39388.00;5065308;28;20052;-62
2023/12/20 00:48:31;;;;;;;2.53;1.70;;;;;;;-145.63;60.74;39386.06;5048697;28;20325;-65
2023/12/20 00:50:57;;;;;;;3.35;1.65;;;;;;;-145.63;60.74;39397.78;5049684;28;20309;-63
2023/12/20 00:53:23;;;;;;;2.80;1.60;;;;;;;-145.63;60.88;39399.75;5065344;28;20032;-63
2023/12/20 00:55:50;;;;;;;1.92;1.58;;;;;;;-145.63;60.94;39440.81;5062514;28;20033;-63
2023/12/20 00:58:15;;;;;;;1.85;1.50;;;;;;;-145.63;61.45;39378.22;5045183;28;20032;-63
2023/12/20 01:00:44;;;;;;;4.22;1.50;;;;;;;-145.63;61.11;39397.78;5063289;28;20025;-67
2023/12/20 01:03:09;;;;;;;3.10;1.70;;;;;;;-145.63;61.09;39372.34;5051181;28;20111;-64
2023/12/20 01:05:35;;;;;;;3.72;1.67;;;;;;;-145.63;61.62;39397.78;5049349;28;20286;-64
2023/12/20 01:08:02;;;;;;;1.92;1.73;;;;;;;-145.63;61.45;39423.22;5054789;28;20068;-63
2023/12/20 01:10:29;;;;;;;2.70;2.03;;;;;;;-145.63;61.64;39364.53;5045264;28;20033;-63
2023/12/20 01:12:55;;;;;;;2.85;2.33;;;;;;;-145.63;61.77;39411.47;5064808;28;20305;-63
2023/12/20 01:15:20;;;;;;;2.20;1.85;;;;;;;-145.63;61.71;39395.84;5064209;28;20036;-63
2023/12/20 01:17:47;;;;;;;2.42;1.90;;;;;;;-145.63;61.68;39403.66;5075382;28;20021;-64
2023/12/20 01:20:12;;;;;;;2.53;1.70;;;;;;;-145.63;61.98;39389.97;5078899;28;20229;-64
2023/12/20 01:22:38;;;;;;;2.88;1.88;;;;;;;-145.63;61.85;39413.44;5063705;28;20035;-64
2023/12/20 01:25:04;;;;;;;2.60;2.15;;;;;;;-145.63;61.25;39388.00;5043541;28;20245;-64
2023/12/20 01:27:31;;;;;;;2.65;1.98;;;;;;;-145.63;61.29;39411.47;5061129;28;20071;-62
2023/12/20 01:29:57;;;;;;;2.65;2.13;;;;;;;-145.63;61.14;39411.47;5064646;28;20040;-63
2023/12/20 01:32:22;;;;;;;1.98;1.77;;;;;;;-145.63;61.17;39382.13;5057424;28;20025;-63
2023/12/20 01:34:48;;;;;;;2.25;1.80;;;;;;;-145.63;60.98;39425.16;5046723;28;20048;-63
2023/12/20 01:37:14;;;;;;;2.60;1.70;;;;;;;-145.63;61.05;39380.19;5064461;28;20029;-63
2023/12/20 01:39:40;;;;;;;2.95;1.95;;;;;;;-145.63;60.93;39395.84;5064540;28;20131;-64
2023/12/20 01:42:05;;;;;;;2.42;1.92;;;;;;;-145.63;61.02;39389.97;5051413;28;20226;-63
2023/12/20 01:44:31;;;;;;;3.15;2.00;;;;;;;-145.63;60.83;39343.03;5052626;28;20067;-63
2023/12/20 01:46:57;;;;;;;2.35;1.98;;;;;;;-145.63;61.01;39405.59;5060914;28;20071;-63
2023/12/20 01:49:23;;;;;;;2.05;1.83;;;;;;;-145.63;61.21;39399.75;5045564;28;20053;-63
2023/12/20 01:51:50;;;;;;;2.70;2.10;;;;;;;-145.63;60.91;39409.53;5054775;28;20025;-63
2023/12/20 01:54:17;;;;;;;2.92;1.88;;;;;;;-145.63;60.77;39399.75;5050138;28;20052;-63
2023/12/20 01:56:42;;;;;;;2.40;2.00;;;;;;;-145.63;60.72;39391.91;5053724;28;20366;-63
2023/12/20 01:59:09;;;;;;;3.42;1.90;;;;;;;-145.63;61.00;39411.47;5063894;28;20025;-62
2023/12/20 02:01:35;;;;;;;2.17;1.92;;;;;;;-145.63;60.74;39415.38;5064221;28;20084;-62
2023/12/20 02:04:01;;;;;;;4.55;1.67;;;;;;;-145.63;60.91;39403.66;5043990;28;20033;-62
2023/12/20 02:06:33;;;;;;;3.70;1.65;;;;;;;-145.63;61.04;39409.53;5059718;28;20059;-62
2023/12/20 02:08:59;;;;;;;2.60;1.98;;;;;;;-145.63;60.59;39423.22;5064000;28;20301;-62
2023/12/20 02:11:26;;;;;;;3.05;1.80;;;;;;;-145.63;60.25;39417.34;5063767;28;20225;-62
2023/12/20 02:13:53;;;;;;;3.63;1.75;;;;;;;-145.63;60.57;39438.84;5063788;28;20028;-62
2023/12/20 02:16:19;;;;;;;1.67;1.50;;;;;;;-145.63;59.87;39368.44;5063823;28;20039;-63
2023/12/20 02:18:45;;;;;;;2.40;1.40;;;;;;;-145.63;60.19;39425.16;5063680;28;20052;-64
2023/12/20 02:21:11;;;;;;;3.28;1.50;;;;;;;-145.63;60.04;39411.47;5062992;28;20333;-63
2023/12/20 02:23:36;;;;;;;3.70;1.95;;;;;;;-145.63;59.88;39419.31;5063468;28;20083;-63
2023/12/20 02:26:04;;;;;;;1.73;1.45;;;;;;;-145.63;59.99;39391.91;5062843;28;20340;-63
2023/12/20 02:28:31;;;;;;;4.13;1.50;;;;;;;-145.63;60.10;39431.03;5063214;28;20024;-62
2023/12/20 02:30:57;;;;;;;2.33;1.50;;;;;;;-145.63;59.88;39542.53;5063118;28;20024;-63
2023/12/20 02:33:23;;;;;;;4.13;1.52;;;;;;;-145.63;59.93;39401.69;5048503;28;20033;-62
2023/12/20 02:35:48;;;;;;;3.00;1.23;;;;;;;-145.63;59.67;39407.56;5053256;28;20037;-62
2023/12/20 02:38:14;;;;;;;1.70;1.58;;;;;;;-145.63;59.65;39405.59;5063029;28;20033;-62
2023/12/20 02:40:40;;;;;;;4.28;1.50;;;;;;;-145.63;59.59;39405.59;5062700;28;20032;-63
2023/12/20 02:43:05;;;;;;;1.75;1.50;;;;;;;-145.63;59.57;39389.97;5043017;28;20056;-63
2023/12/20 02:45:31;;;;;;;4.93;1.85;;;;;;;-145.63;59.68;39399.75;5058874;28;20024;-62
2023/12/20 02:47:57;;;;;;;3.67;1.33;;;;;;;-145.63;59.65;39427.13;5051789;28;20053;-63
2023/12/20 02:50:22;;;;;;;3.58;1.20;;;;;;;-145.63;59.96;39397.78;5044059;28;20294;-63
2023/12/20 02:52:48;;;;;;;2.50;1.55;;;;;;;-145.63;59.57;39407.56;5060067;28;20095;-64
2023/12/20 02:55:14;;;;;;;5.32;1.33;;;;;;;-145.63;59.61;39376.28;5042889;28;20314;-63
2023/12/20 02:57:43;;;;;;;3.33;1.20;;;;;;;-145.63;59.99;39386.06;5059798;28;20079;-63
2023/12/20 03:00:10;;;;;;;1.75;1.05;;;;;;;-145.63;59.76;39415.38;5072386;28;21128;-63
2023/12/20 03:02:36;;;;;;;1.77;1.20;;;;;;;-145.63;59.83;39423.22;5070978;28;20051;-63
2023/12/20 03:05:03;;;;;;;2.40;1.20;;;;;;;-145.63;59.61;39393.88;5079303;28;20025;-62
2023/12/20 03:07:30;;;;;;;1.23;1.13;;;;;;;-145.63;59.53;39380.19;5063082;28;20021;-61
2023/12/20 03:09:56;;;;;;;2.17;1.17;;;;;;;-145.63;59.58;39384.09;5062564;28;20027;-61
2023/12/20 03:12:21;;;;;;;3.50;1.52;;;;;;;-145.63;59.05;39403.66;5062588;28;20056;-61
2023/12/20 03:14:48;;;;;;;2.58;1.83;;;;;;;-145.63;59.74;39419.31;5051749;28;20037;-61
2023/12/20 03:17:14;;;;;;;3.10;1.80;;;;;;;-145.63;59.21;39407.56;5047317;28;20036;-62
2023/12/20 03:19:39;;;;;;;2.22;1.60;;;;;;;-145.63;59.57;39395.84;5062359;28;20095;-64
2023/12/20 03:22:05;;;;;;;3.80;1.80;;;;;;;-145.63;59.35;39376.28;5076109;28;20028;-63
2023/12/20 03:24:31;;;;;;;2.38;2.00;;;;;;;-145.63;60.05;39389.97;5062350;28;20020;-63
2023/12/20 03:26:56;;;;;;;4.47;2.35;;;;;;;-145.63;59.66;39401.69;5073177;28;20024;-63
2023/12/20 03:29:22;;;;;;;3.08;2.17;;;;;;;-145.63;60.25;39419.31;5076500;28;20029;-63
2023/12/20 03:31:47;;;;;;;2.47;2.15;;;;;;;-145.63;60.77;39421.25;5062355;28;20293;-61
2023/12/20 03:34:13;;;;;;;4.43;2.58;;;;;;;-145.63;60.35;39376.28;5062158;28;20041;-61
2023/12/20 03:36:40;;;;;;;5.03;2.30;;;;;;;-145.63;60.68;39393.88;5045933;28;20036;-62
2023/12/20 03:39:06;;;;;;;3.30;2.20;;;;;;;-145.63;61.16;39415.38;5053534;28;20217;-61
2023/12/20 03:41:31;;;;;;;3.58;2.20;;;;;;;-145.63;61.58;39399.75;5062106;28;20048;-61
2023/12/20 03:43:57;;;;;;;3.03;2.50;;;;;;;-145.63;61.40;39427.13;5059673;28;20092;-62
2023/12/20 03:46:22;;;;;;;4.47;2.78;;;;;;;-145.63;61.77;39403.66;5042174;28;20032;-63
2023/12/20 03:48:48;;;;;;;3.78;2.80;;;;;;;-145.63;61.71;39380.19;5059663;28;20029;-62
2023/12/20 03:51:14;;;;;;;4.00;2.38;;;;;;;-145.63;62.37;39417.34;5060869;28;20045;-63
2023/12/20 03:53:40;;;;;;;2.97;2.63;;;;;;;-145.63;62.34;39411.47;5062170;28;20033;-63
2023/12/20 03:56:06;;;;;;;5.18;2.95;;;;;;;-145.63;62.38;39436.91;5058436;28;20025;-65
2023/12/20 03:58:32;;;;;;;3.72;3.13;;;;;;;-145.63;63.30;39427.13;5042227;28;20035;-62
2023/12/20 04:00:57;;;;;;;3.75;2.67;;;;;;;-145.63;62.65;39384.09;5060404;28;20131;-61
2023/12/20 04:03:23;;;;;;;4.20;3.17;;;;;;;-145.63;62.48;39380.19;5061947;28;20088;-61
2023/12/20 04:05:49;;;;;;;3.15;2.85;;;;;;;-145.63;62.42;39378.22;5052684;28;20021;-61
2023/12/20 04:08:14;;;;;;;4.57;2.90;;;;;;;-145.63;62.99;39425.16;5058072;28;20090;-62
2023/12/20 04:10:40;;;;;;;3.50;3.20;;;;;;;-145.63;62.62;39382.13;5062058;28;20310;-63
2023/12/20 04:13:06;;;;;;;4.65;3.10;;;;;;;-145.63;62.41;39360.63;5061816;28;20078;-63
2023/12/20 04:15:31;;;;;;;4.72;3.20;;;;;;;-145.63;62.68;39395.84;5052013;28;20120;-63
2023/12/20 04:17:57;;;;;;;3.40;2.88;;;;;;;-145.63;62.22;39391.91;5051593;28;20333;-62
2023/12/20 04:20:23;;;;;;;5.78;3.35;;;;;;;-145.63;62.26;39407.56;5042840;28;20025;-61
2023/12/20 04:22:48;;;;;;;6.38;3.25;;;;;;;-145.63;62.01;39403.66;5041979;28;20274;-62
2023/12/20 04:25:14;;;;;;;4.70;3.55;;;;;;;-145.63;62.02;39411.47;5043027;28;20032;-62
2023/12/20 04:27:40;;;;;;;4.25;3.60;;;;;;;-145.63;62.13;39399.75;5077848;28;20055;-62
2023/12/20 04:30:07;;;;;;;5.57;3.88;;;;;;;-145.63;62.11;39393.88;5070028;28;20024;-62
2023/12/20 04:32:33;;;;;;;5.57;4.47;;;;;;;-145.63;61.90;39517.09;5054944;28;20297;-61
2023/12/20 04:34:59;;;;;;;8.77;4.40;;;;;;;-145.63;62.21;39403.66;5043818;28;20100;-63
2023/12/20 04:37:24;;;;;;;6.68;4.50;;;;;;;-145.63;62.81;39376.28;5061587;28;20173;-63
2023/12/20 04:39:50;;;;;;;8.38;4.20;;;;;;;-145.63;62.17;39409.53;5058899;28;20055;-61
2023/12/20 04:42:16;;;;;;;8.45;4.72;;;;;;;-145.63;61.85;39393.88;5048977;28;20041;-63
2023/12/20 04:44:43;;;;;;;6.57;5.00;;;;;;;-145.63;62.27;39419.31;5050031;28;20017;-63
2023/12/20 04:47:09;;;;;;;6.47;4.85;;;;;;;-145.63;62.07;39386.06;5061737;28;20025;-63
2023/12/20 04:49:35;;;;;;;7.25;4.60;;;;;;;-145.63;62.11;39362.59;5059282;28;20155;-63
2023/12/20 04:52:01;;;;;;;6.70;4.50;;;;;;;-145.63;62.08;39384.09;5063961;28;20033;-64
2023/12/20 04:54:26;;;;;;;6.15;3.67;;;;;;;-145.63;61.48;39417.34;5065279;28;20053;-62
2023/12/20 04:56:52;;;;;;;6.15;4.40;;;;;;;-145.63;61.76;39407.56;5055946;28;20037;-63
2023/12/20 04:59:18;;;;;;;6.03;4.20;;;;;;;-145.63;61.41;39395.84;5053328;28;20309;-63
2023/12/20 05:01:43;;;;;;;4.32;3.92;;;;;;;-145.63;61.13;39401.69;5065456;28;20036;-62
2023/12/20 05:04:09;;;;;;;6.90;4.20;;;;;;;-145.63;61.11;39380.19;5045212;28;20194;-63
2023/12/20 05:06:35;;;;;;;7.60;4.13;;;;;;;-145.63;60.92;39401.69;5060105;28;20033;-63
2023/12/20 05:09:00;;;;;;;6.25;4.47;;;;;;;-145.63;61.17;39403.66;5064877;28;20071;-63
2023/12/20 05:11:26;;;;;;;4.10;3.60;;;;;;;-145.63;61.17;39401.69;5064858;28;20024;-64
2023/12/20 05:13:52;;;;;;;3.97;3.40;;;;;;;-145.63;60.87;39401.69;5063919;28;20033;-63
2023/12/20 05:16:17;;;;;;;6.80;4.07;;;;;;;-145.63;60.95;39407.56;5044660;28;20040;-62
2023/12/20 05:18:49;;;;;;;5.50;3.80;;;;;;;-145.63;60.95;38961.66;5061281;28;20052;-63
2023/12/20 05:21:15;;;;;;;7.13;4.72;;;;;;;-145.63;60.58;39415.38;5075434;28;20431;-64
2023/12/20 05:23:40;;;;;;;6.95;3.75;;;;;;;-145.63;60.50;39415.38;5067747;28;20041;-62
2023/12/20 05:26:06;;;;;;;5.10;3.90;;;;;;;-145.63;60.46;39395.84;5047225;28;20098;-62
2023/12/20 05:28:32;;;;;;;4.28;3.50;;;;;;;-145.63;60.53;39388.00;5064801;28;20021;-62
2023/12/20 05:30:58;;;;;;;6.57;3.63;;;;;;;-145.63;60.61;39395.84;5064638;28;20197;-62
2023/12/20 05:33:24;;;;;;;3.63;3.00;;;;;;;-145.63;60.32;39403.66;5066577;28;20021;-62
2023/12/20 05:35:50;;;;;;;7.32;3.80;;;;;;;-145.63;60.52;39389.97;5061909;28;20033;-64
2023/12/20 05:38:16;;;;;;;3.95;3.38;;;;;;;-145.63;60.48;39403.66;5080243;28;20029;-63
2023/12/20 05:40:42;;;;;;;4.43;3.20;;;;;;;-145.63;60.18;39415.38;5064275;28;20031;-62
2023/12/20 05:43:08;;;;;;;4.82;3.22;;;;;;;-145.63;60.21;39425.16;5048259;28;20056;-63
2023/12/20 05:45:34;;;;;;;6.85;3.40;;;;;;;-145.63;60.19;39397.78;5064205;28;20041;-62
2023/12/20 05:48:00;;;;;;;6.05;3.42;;;;;;;-145.63;60.10;39423.22;5062416;28;20095;-61
2023/12/20 05:50:25;;;;;;;9.23;3.88;;;;;;;-145.63;60.16;39425.16;5049376;28;20044;-64
2023/12/20 05:52:51;;;;;;;5.30;3.78;;;;;;;-145.63;60.38;39384.09;5062816;28;20037;-62
2023/12/20 05:55:17;;;;;;;6.80;3.65;;;;;;;-145.63;60.30;39407.56;5055861;28;20028;-63
2023/12/20 05:57:43;;;;;;;8.18;5.18;;;;;;;-145.63;59.88;39388.00;5055430;28;20086;-66
2023/12/20 06:00:09;;;;;;;9.30;5.88;;;;;;;-145.63;59.96;39397.78;5062669;28;20025;-64
2023/12/20 06:02:36;;;;;;;7.55;4.47;;;;;;;-145.63;60.04;39423.22;5063803;28;20077;-62
2023/12/20 06:05:04;;;;;;;7.55;5.43;;;;;;;-145.63;59.51;39419.31;5062236;28;20039;-63
2023/12/20 06:07:30;;;;;;;5.30;4.03;;;;;;;-145.63;58.99;39407.56;5053034;28;20274;-62
2023/12/20 06:09:56;;;;;;;6.70;3.83;;;;;;;-145.63;58.85;39429.06;5065272;28;20055;-63
2023/12/20 06:12:22;;;;;;;7.50;4.00;;;;;;;-145.63;58.57;39397.78;5063607;28;20048;-63
2023/12/20 06:14:50;;;;;;;7.28;3.97;;;;;;;-145.63;58.20;39423.22;5055838;28;20033;-62
2023/12/20 06:17:16;;;;;;;6.85;4.00;;;;;;;-145.63;58.76;39421.25;5046014;28;20043;-63
2023/12/20 06:19:44;;;;;;;5.50;3.65;;;;;;;-145.63;58.65;39378.22;5063084;28;20037;-65
2023/12/20 06:22:10;;;;;;;8.48;4.28;;;;;;;-145.63;58.07;39415.38;5056870;28;20032;-64
2023/12/20 06:24:36;;;;;;;7.65;3.78;;;;;;;-145.63;58.05;39368.44;5063955;28;20269;-63
2023/12/20 06:27:02;;;;;;;5.15;4.10;;;;;;;-145.63;58.06;39393.88;5060798;28;20035;-65
2023/12/20 06:29:28;;;;;;;6.78;4.32;;;;;;;-145.63;57.87;39393.88;5054616;28;20032;-63
2023/12/20 06:31:53;;;;;;;5.63;4.22;;;;;;;-145.63;57.81;39411.47;5055035;28;20144;-62
2023/12/20 06:34:19;;;;;;;7.25;4.15;;;;;;;-145.63;57.98;39434.94;5043314;28;20041;-64
2023/12/20 06:36:45;;;;;;;4.95;3.90;;;;;;;-145.63;58.05;39415.38;5058415;28;20051;-63
2023/12/20 06:39:12;;;;;;;6.35;4.63;;;;;;;-145.63;58.44;39388.00;5060229;28;20040;-63
2023/12/20 06:41:38;;;;;;;7.13;4.20;;;;;;;-145.63;57.99;39388.00;5060587;28;20352;-63
2023/12/20 06:44:04;;;;;;;8.45;4.38;;;;;;;-145.63;58.09;39378.22;5059724;28;20358;-64
2023/12/20 06:46:30;;;;;;;6.72;4.32;;;;;;;-145.63;58.26;39466.25;5063156;28;20039;-64
2023/12/20 06:48:55;;;;;;;7.38;4.38;;;;;;;-145.63;58.05;39374.31;5063061;28;20201;-63
2023/12/20 06:51:25;;;;;;;6.97;4.53;;;;;;;-145.63;57.63;39188.53;5062937;28;20352;-62
2023/12/20 06:53:51;;;;;;;7.22;4.68;;;;;;;-145.63;57.85;39403.66;5062652;28;20025;-64
2023/12/20 06:56:17;;;;;;;7.82;4.28;;;;;;;-145.63;57.68;39419.31;5059839;28;20345;-63
2023/12/20 06:58:43;;;;;;;5.55;4.00;;;;;;;-145.63;57.79;39346.94;5062712;28;20044;-63
2023/12/20 07:01:15;;;;;;;6.90;3.60;;;;;;;-145.63;58.01;39384.09;5061072;28;20054;-62
2023/12/20 07:03:42;;;;;;;5.38;3.80;;;;;;;-145.63;57.45;39403.66;5073880;28;20024;-64
2023/12/20 07:06:08;;;;;;;7.97;4.03;;;;;;;-145.63;57.68;39425.16;5061298;28;20095;-63
2023/12/20 07:08:34;;;;;;;7.63;4.00;;;;;;;-145.63;57.43;39399.75;5062548;28;20248;-62
2023/12/20 07:11:00;;;;;;;4.90;3.55;;;;;;;-145.63;57.42;39384.09;5054031;28;20047;-62
2023/12/20 07:13:26;;;;;;;5.00;3.35;;;;;;;-145.63;57.38;39260.88;5061766;28;20309;-64
2023/12/20 07:15:52;;;;;;;5.28;3.10;;;;;;;-145.63;57.30;39380.19;5061123;28;20024;-62
2023/12/20 07:18:17;;;;;;;6.75;3.70;;;;;;;-145.63;57.32;39419.31;5073523;28;20100;-63
2023/12/20 07:20:43;;;;;;;8.40;3.58;;;;;;;-145.63;56.81;39391.91;5055905;28;20032;-63
2023/12/20 07:23:09;;;;;;;5.18;3.28;;;;;;;-145.63;56.66;39397.78;5044299;28;20404;-64
2023/12/20 07:25:34;;;;;;;5.88;3.20;;;;;;;-145.63;56.63;39405.59;5062590;28;20025;-64
2023/12/20 07:28:00;;;;;;;4.82;3.10;;;;;;;-145.63;56.00;39415.38;5055570;28;20029;-64
2023/12/20 07:30:26;;;;;;;6.72;3.30;;;;;;;-145.63;56.51;39413.44;5062118;28;20059;-63
2023/12/20 07:32:52;;;;;;;4.30;3.03;;;;;;;-145.63;56.73;39446.69;5059776;28;20017;-61
2023/12/20 07:35:18;;;;;;;4.50;3.05;;;;;;;-145.63;56.90;39399.75;5058434;28;20041;-63
2023/12/20 07:37:44;;;;;;;7.53;3.42;;;;;;;-145.63;57.54;39413.44;5062089;28;20036;-63
2023/12/20 07:40:10;;;;;;;5.82;2.88;;;;;;;-145.63;57.09;39395.84;5061174;28;20070;-63
2023/12/20 07:42:36;;;;;;;4.05;3.30;;;;;;;-145.63;57.25;39427.13;5061890;28;20028;-64
2023/12/20 07:45:02;;;;;;;4.82;2.55;;;;;;;-145.63;57.10;39403.66;5061730;28;20325;-64
2023/12/20 07:47:31;;;;;;;5.35;3.10;;;;;;;-145.63;57.23;39376.28;5064552;28;20020;-65
2023/12/20 07:49:56;;;;;;;4.78;2.78;;;;;;;-145.63;57.30;39397.78;5070138;28;20110;-64
2023/12/20 07:52:23;;;;;;;4.93;2.90;;;;;;;-145.63;57.03;39403.66;5060764;28;20033;-65
2023/12/20 07:54:49;;;;;;;6.60;4.13;;;;;;;-145.63;56.90;39409.53;5061099;28;20032;-64
2023/12/20 07:57:14;;;;;;;5.72;2.97;;;;;;;-145.63;57.03;39362.59;5062089;28;20037;-63
2023/12/20 07:59:40;;;;;;;3.95;2.90;;;;;;;-145.63;57.11;39395.84;5050920;28;20028;-61
2023/12/20 08:02:06;;;;;;;7.75;2.88;;;;;;;-145.63;56.66;39433.00;5061487;28;20033;-62
2023/12/20 08:04:32;;;;;;;7.10;3.08;;;;;;;-145.63;57.21;39417.34;5062254;28;20024;-62
2023/12/20 08:06:58;;;;;;;7.47;2.80;;;;;;;-145.63;56.57;39386.06;5061812;28;20314;-61
2023/12/20 08:09:24;;;;;;;4.25;3.00;;;;;;;-145.63;56.70;39388.00;5061726;28;20032;-61
2023/12/20 08:11:49;;;;;;;3.33;2.80;;;;;;;-145.63;55.96;39393.88;5054811;28;20093;-62
2023/12/20 08:14:16;;;;;;;6.13;3.08;;;;;;;-145.63;55.93;39380.19;5044862;28;20024;-62
2023/12/20 08:16:41;;;;;;;3.75;2.72;;;;;;;-145.63;56.09;39362.59;5062208;28;20175;-62
2023/12/20 08:19:07;;;;;;;3.88;2.45;;;;;;;-145.63;55.60;39360.63;5056124;28;20044;-62
2023/12/20 08:21:34;;;;;;;4.93;2.45;;;;;;;-145.63;55.60;39376.28;5062128;28;20078;-61
2023/12/20 08:24:00;;;;;;;4.80;2.58;;;;;;;-145.63;55.61;39362.59;5053842;28;20017;-61
2023/12/20 08:26:26;;;;;;;4.78;2.72;;;;;;;-145.63;55.55;39374.31;5048923;28;20027;-62
2023/12/20 08:28:52;;;;;;;4.78;2.50;;;;;;;-145.63;55.49;39411.47;5065926;28;20088;-62
2023/12/20 08:31:19;;;;;;;3.67;2.72;;;;;;;-145.63;55.50;39370.41;5065376;28;20031;-62
2023/12/20 08:33:45;;;;;;;4.75;2.63;;;;;;;-145.63;56.20;39368.44;5051027;28;20093;-63
2023/12/20 08:36:12;;;;;;;5.35;2.80;;;;;;;-145.63;55.98;39378.22;5058467;28;20060;-63
2023/12/20 08:38:37;;;;;;;4.63;3.00;;;;;;;-145.63;56.24;39393.88;5054690;28;20039;-63
2023/12/20 08:41:05;;;;;;;7.60;2.90;;;;;;;-145.63;56.09;39380.19;5058017;28;20024;-62
2023/12/20 08:43:36;;;;;;;5.25;2.47;;;;;;;-145.63;56.31;39380.19;5065478;28;20079;-64
2023/12/20 08:46:03;;;;;;;4.50;3.03;;;;;;;-145.63;55.94;39372.34;5065444;28;20044;-62
2023/12/20 08:48:29;;;;;;;5.47;2.38;;;;;;;-145.63;55.45;39339.13;5053664;28;20025;-63
2023/12/20 08:50:55;;;;;;;3.78;2.58;;;;;;;-145.63;55.72;39399.75;5046699;28;20039;-63
2023/12/20 08:53:20;;;;;;;4.65;2.50;;;;;;;-145.63;55.78;39364.53;5047942;28;20351;-63
2023/12/20 08:55:46;;;;;;;3.35;2.42;;;;;;;-145.63;55.75;39384.09;5065020;28;20036;-64
2023/12/20 08:58:12;;;;;;;3.92;2.53;;;;;;;-145.63;55.74;39350.84;5065117;28;20033;-64
2023/12/20 09:00:38;;;;;;;5.15;3.22;;;;;;;-145.63;56.03;39403.66;5065121;28;20229;-63
2023/12/20 09:03:05;;;;;;;4.80;2.75;;;;;;;-145.63;55.96;39397.78;5056557;28;20017;-62
2023/12/20 09:05:31;;;;;;;6.18;3.20;;;;;;;-145.63;56.68;39417.34;5049327;28;20024;-62
2023/12/20 09:07:57;;;;;;;5.57;3.00;;;;;;;-145.63;56.76;39388.00;5064933;28;20016;-62
2023/12/20 09:10:22;;;;;;;6.20;3.30;;;;;;;-145.63;57.10;39419.31;5054561;28;20321;-62
2023/12/20 09:12:56;;;;;;;5.15;3.00;;;;;;;-145.63;57.15;39415.38;5063889;28;20056;-62
2023/12/20 09:15:26;;;;;;;6.95;3.63;;;;;;;-145.63;57.43;39403.66;5046506;28;20037;-63
2023/12/20 09:17:53;;;;;;;8.43;3.78;;;;;;;-145.63;57.29;39427.13;5062512;28;20099;-62
2023/12/20 09:20:19;;;;;;;3.33;3.03;;;;;;;-145.63;57.38;39411.47;5062653;28;20021;-61
2023/12/20 09:22:45;;;;;;;11.15;3.50;;;;;;;-145.63;57.42;39427.13;5058351;28;20028;-63
2023/12/20 09:25:12;;;;;;;4.38;3.10;;;;;;;-145.63;57.21;39405.59;5050937;28;20036;-62
2023/12/20 09:27:38;;;;;;;5.22;3.58;;;;;;;-145.63;57.43;39419.31;5064185;28;20025;-60
2023/12/20 09:30:05;;;;;;;5.90;3.22;;;;;;;-145.63;57.53;39417.34;5063757;28;20142;-60
2023/12/20 09:32:33;;;;;;;5.53;3.72;;;;;;;-145.63;57.91;39409.53;5051943;28;20024;-61
2023/12/20 09:34:59;;;;;;;3.97;3.17;;;;;;;-145.63;57.72;39399.75;5062996;28;20285;-61
2023/12/20 09:37:27;;;;;;;3.70;3.30;;;;;;;-145.63;58.28;39427.13;5060115;28;20032;-62
2023/12/20 09:39:53;;;;;;;3.33;3.03;;;;;;;-145.63;58.08;39405.59;5064096;28;20021;-62
2023/12/20 09:42:29;;;;;;;4.22;3.20;;;;;;;-145.63;58.46;39403.66;5057883;28;20033;-62
2023/12/20 09:44:57;;;;;;;5.60;3.00;;;;;;;-145.63;58.52;39395.84;5079630;28;20025;-61
2023/12/20 09:47:24;;;;;;;4.18;3.47;;;;;;;-145.63;58.16;39407.56;5061013;28;20033;-63
2023/12/20 09:49:51;;;;;;;3.35;3.05;;;;;;;-145.63;58.13;39405.59;5045019;28;20025;-61
2023/12/20 09:52:18;;;;;;;5.90;2.88;;;;;;;-145.63;58.32;39470.16;5046782;28;20064;-61
2023/12/20 09:54:47;;;;;;;4.38;2.78;;;;;;;-145.63;58.53;39397.78;5049227;28;20021;-61
2023/12/20 09:57:13;;;;;;;7.03;3.17;;;;;;;-145.63;58.22;39415.38;5054969;28;20203;-61
2023/12/20 09:59:39;;;;;;;3.40;2.85;;;;;;;-145.63;58.23;39421.25;5059168;28;20033;-62
2023/12/20 10:02:12;;;;;;;3.17;2.88;;;;;;;-145.63;58.35;39429.06;5042788;28;20194;-62
2023/12/20 10:04:45;;;;;;;4.53;3.30;;;;;;;-145.63;58.18;39442.78;5045901;28;20037;-62
2023/12/20 10:07:11;;;;;;;3.38;2.88;;;;;;;-145.63;58.31;39419.31;5049161;28;20033;-62
2023/12/20 10:09:37;;;;;;;4.25;3.20;;;;;;;-145.63;58.40;39438.84;5058498;28;20079;-62
2023/12/20 10:12:05;;;;;;;3.47;3.00;;;;;;;-145.63;59.15;39403.66;5063531;28;20040;-61
2023/12/20 10:14:32;;;;;;;3.95;3.00;;;;;;;-145.63;58.85;39415.38;5063600;28;20036;-61
2023/12/20 10:17:03;;;;;;;3.58;2.90;;;;;;;-145.63;59.12;39397.78;5061078;28;20247;-62
2023/12/20 10:19:29;;;;;;;3.90;3.03;;;;;;;-145.63;59.09;39425.16;5057516;28;20040;-62
2023/12/20 10:21:54;;;;;;;3.85;3.40;;;;;;;-145.63;59.17;39415.38;5059747;28;20025;-62
2023/12/20 10:24:20;;;;;;;4.00;2.72;;;;;;;-145.63;59.24;39399.75;5063868;28;20040;-62
2023/12/20 10:26:46;;;;;;;3.78;2.97;;;;;;;-145.63;59.46;39401.69;5058827;28;20057;-62
2023/12/20 10:29:12;;;;;;;4.20;3.63;;;;;;;-145.63;59.22;39407.56;5059874;28;20065;-61
2023/12/20 10:31:42;;;;;;;3.95;2.70;;;;;;;-145.63;59.43;39397.78;5059815;28;20090;-61
2023/12/20 10:34:08;;;;;;;4.55;3.00;;;;;;;-145.63;58.88;39419.31;5060774;28;20052;-61
2023/12/20 10:36:34;;;;;;;3.08;2.80;;;;;;;-145.63;58.97;39417.34;5059678;28;20025;-61
2023/12/20 10:38:59;;;;;;;3.40;3.10;;;;;;;-145.63;59.15;39425.16;5052546;28;20108;-60
2023/12/20 10:41:31;;;;;;;3.90;2.97;;;;;;;-145.63;59.25;39395.84;5057433;28;20301;-61
2023/12/20 10:44:07;;;;;;;3.53;2.92;;;;;;;-145.63;58.82;39458.41;5062625;28;20052;-62
2023/12/20 10:46:34;;;;;;;3.75;3.00;;;;;;;-145.63;58.84;39415.38;5058103;28;20029;-62
2023/12/20 10:49:05;;;;;;;3.58;2.80;;;;;;;-145.63;58.55;39423.22;5057161;28;20025;-62
2023/12/20 10:51:31;;;;;;;2.67;2.35;;;;;;;-145.63;58.88;39399.75;5062298;28;20052;-62
2023/12/20 10:53:57;;;;;;;3.13;2.70;;;;;;;-145.63;58.34;39419.31;5062370;28;20097;-62
2023/12/20 10:56:23;;;;;;;4.32;2.67;;;;;;;-145.63;58.57;39450.59;5060927;28;20024;-62
2023/12/20 10:58:50;;;;;;;3.90;2.63;;;;;;;-145.63;58.80;39429.06;5062058;28;20209;-61
2023/12/20 11:01:18;;;;;;;2.50;2.30;;;;;;;-145.63;58.73;39425.16;5062656;28;20374;-61
2023/12/20 11:03:52;;;;;;;2.75;2.55;;;;;;;-145.63;58.49;39464.28;5062545;28;20059;-60
2023/12/20 11:06:23;;;;;;;2.97;2.70;;;;;;;-145.63;58.45;39407.56;5060865;28;20024;-62
2023/12/20 11:09:09;;;;;;;4.63;3.15;;;;;;;-145.63;58.67;39413.44;5061936;28;20316;-63
2023/12/20 11:11:41;;;;;;;3.25;2.70;;;;;;;-145.63;58.38;39423.22;5059425;28;20021;-63
2023/12/20 11:14:11;;;;;;;5.80;3.28;;;;;;;-145.63;58.17;39444.72;5062240;28;20033;-62